Time;durP1;ratioP1;P1;durP2;ratioP2;P2;SDS_P1;SDS_P2;PMS_P1;PMS_P2;Temp;Humidity;BMP_temperature;BMP_pressure;BME280_temperature;BME280_humidity;BME280_pressure;Samples;Min_cycle;Max_cycle;Signal;HPM_P1;HPM_P2
2022/05/03 00:09:51;;;;;;;3.87;2.60;;;;;;;10.19;80.52;100544.19;31359718;28;20076;-79
2022/05/03 00:24:54;;;;;;;10.53;2.57;;;;;;;10.22;79.80;100542.59;31368000;28;20573;-79
2022/05/03 00:40:00;;;;;;;3.93;2.50;;;;;;;10.26;79.66;100529.78;31387760;28;20056;-78
2022/05/03 00:55:14;;;;;;;;;;;;;;;10.19;82.03;100530.59;31361684;28;20059;-78
2022/05/03 01:10:37;;;;;;;3.50;2.70;;;;;;;10.10;81.85;100510.56;31352548;28;19929;-78
2022/05/03 01:26:13;;;;;;;9.90;2.60;;;;;;;9.93;82.16;100498.72;31395350;28;20057;-79
2022/05/03 01:41:44;;;;;;;7.00;3.37;;;;;;;9.85;82.59;100491.84;31404115;28;20394;-78
2022/05/03 01:56:52;;;;;;;6.37;2.87;;;;;;;9.68;81.53;100496.28;31365730;28;20049;-78
2022/05/03 02:12:14;;;;;;;4.47;3.00;;;;;;;9.57;82.48;100495.59;31350612;28;20049;-78
2022/05/03 02:27:18;;;;;;;9.20;3.70;;;;;;;9.27;83.63;100511.72;31353394;28;20059;-78
2022/05/03 02:42:21;;;;;;;6.67;3.60;;;;;;;9.21;83.04;100520.25;31383854;28;20049;-79
2022/05/03 02:57:43;;;;;;;6.80;2.50;;;;;;;9.42;82.76;100527.47;31381875;28;20139;-79
2022/05/03 03:12:55;;;;;;;6.00;3.60;;;;;;;9.65;81.02;100536.97;31396520;28;20406;-78
2022/05/03 03:27:59;;;;;;;4.20;3.00;;;;;;;9.97;81.59;100547.50;31367868;28;20045;-78
2022/05/03 03:43:00;;;;;;;8.70;5.03;;;;;;;10.49;81.96;100556.25;31366899;28;20071;-79
2022/05/03 03:58:03;;;;;;;8.50;4.80;;;;;;;11.05;81.22;100541.16;31350417;28;20573;-79
2022/05/03 04:13:05;;;;;;;16.97;6.33;;;;;;;11.22;81.09;100561.84;31369032;28;20057;-79
2022/05/03 04:28:07;;;;;;;13.30;8.97;;;;;;;11.85;80.56;100553.84;31356130;28;20048;-79
2022/05/03 04:43:10;;;;;;;13.30;7.17;;;;;;;12.78;74.79;100560.22;31376909;28;20519;-80
2022/05/03 04:58:13;;;;;;;7.03;4.03;;;;;;;13.30;69.79;100563.75;31328540;28;20048;-79
2022/05/03 05:13:14;;;;;;;4.77;2.50;;;;;;;13.94;62.48;100564.88;31331066;28;20041;-79
2022/05/03 05:28:18;;;;;;;5.83;2.40;;;;;;;14.57;61.35;100547.19;31358329;28;20100;-79
2022/05/03 05:43:20;;;;;;;5.43;2.70;;;;;;;15.30;58.03;100537.94;31341168;28;20052;-79
2022/05/03 05:58:22;;;;;;;7.03;2.60;;;;;;;15.93;55.69;100544.47;31352580;28;20132;-80
2022/05/03 06:13:24;;;;;;;4.80;2.83;;;;;;;17.00;50.65;100530.38;31400027;28;20135;-79
2022/05/03 06:28:26;;;;;;;7.50;2.85;;;;;;;17.68;48.07;100528.41;31389223;28;20091;-79
2022/05/03 06:43:28;;;;;;;4.95;2.63;;;;;;;18.22;45.82;100518.59;31386802;28;20053;-80
2022/05/03 06:58:30;;;;;;;3.72;1.90;;;;;;;19.19;42.64;100518.44;31372753;28;20053;-80
2022/05/03 07:13:32;;;;;;;3.63;1.92;;;;;;;19.66;40.70;100514.94;31372501;28;20076;-80
2022/05/03 07:28:34;;;;;;;4.93;1.98;;;;;;;19.86;40.47;100504.06;31400894;28;20140;-80
2022/05/03 07:43:36;;;;;;;3.15;1.90;;;;;;;20.14;39.50;100484.53;31389608;28;20140;-81
2022/05/03 07:58:38;;;;;;;3.85;2.10;;;;;;;18.87;40.84;100470.47;31368421;28;20061;-77
2022/05/03 08:13:41;;;;;;;13.52;2.75;;;;;;;20.15;39.63;100450.97;31358716;28;20139;-81
2022/05/03 08:28:43;;;;;;;4.17;2.30;;;;;;;21.34;36.33;100444.72;31330383;28;20094;-79
2022/05/03 08:43:45;;;;;;;3.05;2.10;;;;;;;19.64;37.62;100440.28;31330712;28;20049;-76
2022/05/03 08:58:47;;;;;;;4.90;2.80;;;;;;;19.54;38.20;100422.34;31338351;28;20042;-78
2022/05/03 09:13:50;;;;;;;3.95;2.60;;;;;;;19.73;37.66;100409.91;31321657;28;20055;-74
2022/05/03 09:28:53;;;;;;;8.65;3.22;;;;;;;19.02;37.16;100410.78;31354512;28;20413;-80
2022/05/03 09:44:01;;;;;;;;;;;;;;;21.02;33.90;100385.81;31361607;28;20084;-75
2022/05/03 09:59:07;;;;;;;5.10;3.47;;;;;;;20.68;33.17;100372.84;31403283;28;19931;-80
2022/05/03 10:14:09;;;;;;;6.78;3.70;;;;;;;19.61;33.92;100366.88;31387947;28;20053;-79
2022/05/03 10:29:11;;;;;;;8.20;3.95;;;;;;;20.54;33.27;100352.38;31386748;28;20124;-80
2022/05/03 10:44:57;;;;;;;6.03;4.18;;;;;;;21.55;31.71;100339.72;31392706;28;20056;-79
2022/05/03 11:00:01;;;;;;;6.57;3.70;;;;;;;20.77;30.87;100321.06;31167723;28;20045;-80
2022/05/03 11:15:06;;;;;;;5.63;4.10;;;;;;;19.72;32.30;100318.28;31390800;28;20056;-80
2022/05/03 11:30:11;;;;;;;8.45;4.68;;;;;;;19.00;33.49;100298.44;31389928;28;20045;-75
2022/05/03 11:45:14;;;;;;;7.28;3.58;;;;;;;19.60;32.27;100282.78;31436933;28;20048;-80
2022/05/03 12:00:16;;;;;;;7.57;3.90;;;;;;;20.17;31.74;100258.34;31380410;28;20059;-81
2022/05/03 12:15:26;;;;;;;6.65;3.45;;;;;;;20.13;31.41;100246.00;31376850;28;20055;-81
2022/05/03 12:30:27;;;;;;;10.65;5.15;;;;;;;19.85;32.30;100227.06;31393246;28;20052;-81
2022/05/03 12:45:29;;;;;;;8.63;4.82;;;;;;;19.55;32.46;100209.09;31364747;28;20052;-81
2022/05/03 13:00:33;;;;;;;9.50;5.18;;;;;;;19.35;33.96;100196.00;31366474;28;20045;-79
2022/05/03 13:15:38;;;;;;;14.50;6.03;;;;;;;18.81;34.58;100191.81;31381760;28;20059;-78
2022/05/03 13:30:41;;;;;;;7.80;5.10;;;;;;;18.78;35.77;100199.00;31422376;28;20710;-77
2022/05/03 13:45:43;;;;;;;9.82;5.32;;;;;;;19.13;36.54;100196.41;31368834;28;20049;-81
2022/05/03 14:00:59;;;;;;;8.73;5.00;;;;;;;18.87;37.03;100178.94;31395167;28;20493;-80
2022/05/03 14:16:02;;;;;;;8.68;4.88;;;;;;;18.49;38.39;100155.69;31390552;28;20040;-75
2022/05/03 14:31:04;;;;;;;10.27;5.82;;;;;;;18.57;39.08;100156.88;31393543;28;20065;-78
2022/05/03 14:46:05;;;;;;;10.52;5.18;;;;;;;18.42;38.95;100150.59;31430933;28;20067;-77
2022/05/03 15:16:28;;;;;;;14.43;5.68;;;;;;;17.95;39.84;100123.94;31353757;28;20444;-78
2022/05/03 15:31:30;;;;;;;12.32;6.82;;;;;;;17.67;39.96;100120.59;31314456;28;20053;-78
2022/05/03 15:46:32;;;;;;;25.08;10.38;;;;;;;17.55;40.97;100113.28;31358315;28;20151;-77
2022/05/03 16:01:34;;;;;;;10.35;6.15;;;;;;;17.37;41.87;100109.41;31352428;28;20056;-78
2022/05/03 16:16:36;;;;;;;10.95;6.22;;;;;;;17.11;42.37;100108.31;31384932;28;20053;-78
2022/05/03 16:31:42;;;;;;;11.77;6.47;;;;;;;16.83;43.67;100112.34;31425270;28;20045;-78
2022/05/03 16:46:45;;;;;;;21.27;9.75;;;;;;;16.54;44.58;100110.84;31389560;28;20061;-78
2022/05/03 17:01:48;;;;;;;14.70;8.73;;;;;;;16.15;45.91;100112.53;31268099;28;20053;-79
2022/05/03 17:16:52;;;;;;;15.97;7.73;;;;;;;15.87;46.84;100116.44;31267432;28;20080;-80
2022/05/03 17:31:54;;;;;;;11.87;7.57;;;;;;;15.63;47.38;100132.66;31256725;28;20140;-81
2022/05/03 17:46:55;;;;;;;12.60;6.93;;;;;;;15.51;47.81;100136.25;31254874;28;20060;-73
2022/05/03 18:01:57;;;;;;;9.47;6.47;;;;;;;15.32;48.79;100141.66;31346341;28;20053;-72
2022/05/03 18:17:01;;;;;;;30.93;13.93;;;;;;;15.02;50.08;100151.38;31352689;28;20052;-73
2022/05/03 18:32:05;;;;;;;13.97;6.90;;;;;;;14.74;51.51;100157.13;31352865;28;20052;-73
2022/05/03 18:47:07;;;;;;;6.17;3.83;;;;;;;14.22;53.29;100193.97;31354335;28;20520;-74
2022/05/03 19:02:09;;;;;;;3.27;2.80;;;;;;;12.60;61.75;100196.44;31356355;28;20049;-71
2022/05/03 19:17:11;;;;;;;2.77;1.67;;;;;;;11.95;67.21;100215.56;31351918;28;20080;-74
2022/05/03 19:32:13;;;;;;;5.40;2.93;;;;;;;11.61;68.21;100220.56;31346387;28;20075;-74
2022/05/03 19:47:15;;;;;;;5.83;2.70;;;;;;;11.34;71.67;100239.03;31345192;28;20059;-75
2022/05/03 20:02:17;;;;;;;4.37;3.30;;;;;;;11.19;70.85;100223.00;31355746;28;20053;-74
2022/05/03 20:17:20;;;;;;;3.13;2.13;;;;;;;11.16;71.94;100223.84;31326204;28;20163;-72
2022/05/03 20:32:24;;;;;;;3.67;2.10;;;;;;;11.04;72.31;100232.63;31340812;28;20562;-73
2022/05/03 21:02:48;;;;;;;2.97;1.80;;;;;;;10.61;73.69;100237.31;31310415;28;20048;-73
2022/05/03 21:17:50;;;;;;;5.83;1.90;;;;;;;10.64;75.41;100239.19;31318153;28;20068;-73
2022/05/03 21:32:53;;;;;;;2.27;1.73;;;;;;;10.65;74.78;100227.16;31340481;28;20076;-72
2022/05/03 21:47:55;;;;;;;2.70;1.67;;;;;;;10.57;73.74;100229.25;31349548;28;20430;-72
2022/05/03 22:02:57;;;;;;;2.50;1.70;;;;;;;10.59;73.61;100230.38;31348651;28;20048;-73
2022/05/03 22:18:00;;;;;;;4.87;2.20;;;;;;;10.53;73.55;100221.16;31344272;28;20056;-73
2022/05/03 22:33:05;;;;;;;3.25;1.80;;;;;;;10.47;73.62;100216.63;31366554;28;20053;-73
2022/05/03 22:48:08;;;;;;;4.00;1.73;;;;;;;10.43;74.00;100208.53;31375442;28;20049;-73
2022/05/03 23:03:10;;;;;;;3.10;2.10;;;;;;;10.32;74.64;100199.06;31356256;28;20049;-73
2022/05/03 23:18:13;;;;;;;8.57;5.93;;;;;;;10.12;74.18;100194.31;31361375;28;20097;-71
2022/05/03 23:33:16;;;;;;;13.90;8.27;;;;;;;10.00;73.97;100188.69;31333701;28;20053;-73
2022/05/03 23:48:17;;;;;;;13.13;7.50;;;;;;;9.91;74.17;100181.88;31352689;28;20045;-73
